Time;durP1;ratioP1;P1;durP2;ratioP2;P2;SDS_P1;SDS_P2;PMS_P1;PMS_P2;Temp;Humidity;BMP_temperature;BMP_pressure;BME280_temperature;BME280_humidity;BME280_pressure;Samples;Min_cycle;Max_cycle;Signal;HPM_P1;HPM_P2
2022/08/12 00:42:50;;;;;;;3.95;1.10;;;;;;;24.11;50.46;101552.50;7384340;19;20041;-67
2022/08/12 00:45:18;;;;;;;3.63;1.27;;;;;;;24.08;50.17;101552.94;7381908;19;20346;-67
2022/08/12 00:47:45;;;;;;;4.97;0.80;;;;;;;24.04;50.39;101541.81;7383415;19;20286;-66
2022/08/12 00:50:18;;;;;;;4.63;0.90;;;;;;;24.00;50.41;101543.31;7381412;19;20546;-66
2022/08/12 00:52:49;;;;;;;4.28;1.10;;;;;;;23.98;50.66;101539.16;7382052;19;20020;-63
2022/08/12 00:55:17;;;;;;;2.20;1.00;;;;;;;23.96;50.28;101535.91;7382690;19;20491;-63
2022/08/12 00:57:47;;;;;;;2.97;1.10;;;;;;;23.90;50.89;101536.78;7383048;19;20033;-67
2022/08/12 01:00:22;;;;;;;7.55;1.15;;;;;;;23.87;50.82;101530.00;7368257;19;20022;-67
2022/08/12 01:02:52;;;;;;;5.70;1.08;;;;;;;23.84;50.67;101538.50;7380552;19;20960;-67
2022/08/12 01:13:48;;;;;;;4.07;1.25;;;;;;;23.67;51.45;101526.69;7382261;19;20396;-65
2022/08/12 01:16:21;;;;;;;5.03;1.23;;;;;;;23.64;51.28;101527.13;7381791;19;20015;-65
2022/08/12 01:18:51;;;;;;;5.13;1.23;;;;;;;23.62;51.78;101527.34;7382406;19;20022;-67
2022/08/12 01:21:33;;;;;;;4.93;1.27;;;;;;;23.62;51.17;101527.34;7384149;19;20070;-67
2022/08/12 01:24:13;;;;;;;3.60;0.75;;;;;;;23.61;51.73;101527.59;7382700;19;20101;-65
2022/08/12 01:26:58;;;;;;;2.60;0.90;;;;;;;23.60;51.41;101531.31;7377584;19;20394;-65
2022/08/12 01:29:30;;;;;;;1.70;0.93;;;;;;;23.60;51.26;101528.63;7383679;19;20038;-64
2022/08/12 01:32:04;;;;;;;6.03;0.90;;;;;;;23.56;51.47;101527.41;7388319;19;20488;-63
2022/08/12 01:34:35;;;;;;;2.08;0.60;;;;;;;23.52;51.54;101518.97;7386998;19;20018;-67
2022/08/12 01:37:06;;;;;;;4.43;0.80;;;;;;;23.48;51.93;101517.75;7388924;19;20025;-64
2022/08/12 01:39:49;;;;;;;2.10;0.57;;;;;;;23.45;51.71;101515.53;7387333;19;20021;-67
2022/08/12 01:42:46;;;;;;;2.25;0.70;;;;;;;23.42;52.01;101510.53;7386561;19;20018;-63
2022/08/12 01:45:16;;;;;;;4.53;0.90;;;;;;;23.39;51.75;101517.19;7376117;19;20960;-63
2022/08/12 01:47:52;;;;;;;3.40;0.80;;;;;;;23.38;52.31;101517.41;7386907;19;20014;-62
2022/08/12 01:50:54;;;;;;;3.63;0.80;;;;;;;23.35;52.12;101504.44;7386238;19;20018;-64
2022/08/12 01:53:51;;;;;;;4.45;0.90;;;;;;;23.29;52.62;101500.75;7388412;19;20042;-66
2022/08/12 01:56:23;;;;;;;6.00;0.70;;;;;;;23.21;52.95;101501.00;7384931;19;20035;-65
2022/08/12 02:01:44;;;;;;;2.53;0.70;;;;;;;23.13;53.22;101495.94;7389872;19;20006;-65
2022/08/12 02:11:16;;;;;;;4.32;0.90;;;;;;;22.92;53.83;101488.22;7388465;19;20025;-63
2022/08/12 02:14:05;;;;;;;3.72;0.90;;;;;;;22.91;53.94;101494.63;7387578;19;20011;-63
2022/08/12 02:16:52;;;;;;;4.10;0.75;;;;;;;22.89;54.09;101489.50;7385415;19;20022;-63
2022/08/12 02:19:55;;;;;;;4.43;0.73;;;;;;;22.86;53.85;101489.09;7386644;19;20031;-64
2022/08/12 02:22:37;;;;;;;2.25;0.95;;;;;;;22.86;54.40;101484.56;7390754;19;20018;-64
2022/08/12 02:25:14;;;;;;;4.57;0.70;;;;;;;22.78;54.41;101484.84;7389717;19;20493;-64
2022/08/12 02:27:46;;;;;;;1.48;0.70;;;;;;;22.70;55.18;101486.94;7387552;19;20521;-64
2022/08/12 02:30:21;;;;;;;1.88;0.70;;;;;;;22.66;55.16;101483.00;7384509;19;20056;-67
2022/08/12 02:32:50;;;;;;;3.33;0.95;;;;;;;22.61;55.27;101484.47;7385322;19;20082;-67
2022/08/12 02:35:22;;;;;;;2.03;0.80;;;;;;;22.58;55.13;101479.56;7385575;19;20021;-67
2022/08/12 02:37:52;;;;;;;4.25;0.82;;;;;;;22.57;55.15;101474.41;7385912;19;20018;-67
2022/08/12 02:40:21;;;;;;;1.67;0.75;;;;;;;22.51;55.34;101481.44;7387237;19;20014;-67
2022/08/12 02:43:00;;;;;;;1.52;0.77;;;;;;;22.48;56.01;101478.38;7386947;19;20578;-64
2022/08/12 02:45:36;;;;;;;3.67;0.73;;;;;;;22.43;56.30;101475.53;7381854;19;20014;-63
2022/08/12 02:48:23;;;;;;;2.78;0.90;;;;;;;22.37;56.66;101476.38;7372050;19;20505;-64
2022/08/12 02:50:52;;;;;;;9.85;0.82;;;;;;;22.35;57.47;101473.09;7380216;19;20018;-64
2022/08/12 02:53:19;;;;;;;4.90;0.80;;;;;;;22.33;56.92;101465.25;7384047;19;20015;-64
2022/08/12 02:55:47;;;;;;;3.33;0.73;;;;;;;22.32;56.48;101458.25;7385634;19;20022;-64
2022/08/12 02:58:16;;;;;;;2.80;0.70;;;;;;;22.33;56.67;101459.91;7382240;19;20312;-62
2022/08/12 03:00:46;;;;;;;2.72;0.80;;;;;;;22.33;56.96;101462.56;7378338;19;20010;-63
2022/08/12 03:03:26;;;;;;;3.63;0.70;;;;;;;22.33;56.78;101462.56;7386990;19;20062;-66
2022/08/12 03:06:30;;;;;;;3.47;0.98;;;;;;;22.33;57.12;101456.38;7384897;19;20085;-66
2022/08/12 03:09:05;;;;;;;2.42;0.70;;;;;;;22.34;57.59;101461.53;7383325;19;20011;-66
2022/08/12 03:11:40;;;;;;;4.80;0.82;;;;;;;22.33;56.99;101459.06;7386698;19;20010;-63
2022/08/12 03:14:17;;;;;;;5.65;0.70;;;;;;;22.32;57.34;101460.94;7355358;19;20022;-64
2022/08/12 03:16:56;;;;;;;4.22;0.90;;;;;;;22.32;57.38;101458.25;7382706;19;20086;-64
2022/08/12 03:19:24;;;;;;;2.40;0.70;;;;;;;22.31;57.34;101459.28;7381041;19;20026;-63
2022/08/12 03:21:54;;;;;;;6.38;1.33;;;;;;;22.32;57.47;101449.38;7386165;19;20018;-63
2022/08/12 03:24:41;;;;;;;4.18;0.80;;;;;;;22.29;57.75;101457.84;7384179;19;20025;-64
2022/08/12 03:27:11;;;;;;;5.80;1.05;;;;;;;22.25;57.76;101453.97;7384102;19;20526;-63
2022/08/12 03:29:48;;;;;;;2.72;0.85;;;;;;;22.22;58.09;101460.56;7383709;19;20014;-63
2022/08/12 03:32:19;;;;;;;4.22;0.90;;;;;;;22.17;58.06;101449.66;7385846;19;20018;-63
2022/08/12 03:35:06;;;;;;;4.20;0.90;;;;;;;;;;7380237;19;20498;-62
2022/08/12 03:37:35;;;;;;;2.45;0.88;;;;;;;22.07;58.65;101457.34;7384703;19;20022;-62
2022/08/12 03:40:03;;;;;;;2.25;0.85;;;;;;;22.06;58.87;101453.00;7383667;19;20014;-62
2022/08/12 03:42:39;;;;;;;2.67;0.80;;;;;;;22.06;59.25;101450.31;7386282;19;20434;-64
2022/08/12 04:02:16;;;;;;;3.72;1.20;;;;;;;21.87;60.77;101446.66;7381554;19;20074;-63
2022/08/12 04:04:46;;;;;;;3.55;1.10;;;;;;;21.86;61.03;101452.22;7382308;19;20018;-63
2022/08/12 04:07:15;;;;;;;3.40;1.02;;;;;;;21.86;60.88;101450.38;7384541;19;20478;-63
2022/08/12 04:09:45;;;;;;;5.80;1.10;;;;;;;21.84;61.25;101455.09;7384151;19;20007;-63
2022/08/12 04:15:00;;;;;;;4.15;1.05;;;;;;;21.81;61.63;101446.66;7382628;19;20062;-63
2022/08/12 04:17:27;;;;;;;4.88;1.25;;;;;;;21.76;61.67;101440.09;7385253;19;20389;-63
2022/08/12 04:19:56;;;;;;;4.03;1.10;;;;;;;21.79;61.68;101454.13;7381284;19;20507;-63
2022/08/12 04:22:29;;;;;;;3.25;1.27;;;;;;;21.76;62.08;101445.47;7383350;19;20021;-63
2022/08/12 04:25:01;;;;;;;3.53;1.05;;;;;;;21.75;62.08;101451.84;7385217;19;20026;-64
2022/08/12 04:27:30;;;;;;;4.78;1.17;;;;;;;21.71;62.29;101445.25;7384271;19;20018;-63
2022/08/12 04:29:58;;;;;;;4.30;1.60;;;;;;;21.66;62.47;101438.88;7383520;19;20025;-63
2022/08/12 04:32:49;;;;;;;4.03;1.15;;;;;;;21.67;62.54;101440.53;7381732;19;20098;-63
2022/08/12 04:35:17;;;;;;;6.28;1.30;;;;;;;21.61;62.92;101442.19;7381493;19;20035;-63
2022/08/12 04:37:46;;;;;;;3.38;1.30;;;;;;;21.60;63.07;101445.91;7383501;19;20091;-63
2022/08/12 04:40:29;;;;;;;4.57;1.38;;;;;;;21.64;63.74;101435.59;7382322;19;20374;-63
2022/08/12 04:42:57;;;;;;;4.07;1.30;;;;;;;21.67;63.46;101427.16;7384537;19;20550;-63
2022/08/12 04:45:24;;;;;;;3.45;1.20;;;;;;;21.69;63.05;101436.59;7383389;19;20014;-63
2022/08/12 04:47:51;;;;;;;4.97;1.40;;;;;;;21.71;63.34;101429.19;7384275;19;20122;-63
2022/08/12 04:50:19;;;;;;;4.70;0.93;;;;;;;21.72;63.19;101435.38;7380063;19;20444;-63
2022/08/12 04:53:02;;;;;;;3.53;1.27;;;;;;;21.74;63.33;101434.13;7383218;19;20418;-63
2022/08/12 04:55:29;;;;;;;3.20;1.20;;;;;;;21.75;63.62;101434.94;7383118;19;20383;-63
2022/08/12 04:57:56;;;;;;;3.90;1.50;;;;;;;21.75;63.62;101432.25;7382897;19;20011;-63
2022/08/12 05:00:23;;;;;;;7.28;1.95;;;;;;;21.74;64.25;101431.44;7379801;19;20066;-63
2022/08/12 05:02:51;;;;;;;4.07;1.50;;;;;;;21.78;63.92;101437.22;7356936;19;20025;-63
2022/08/12 05:05:21;;;;;;;6.93;1.50;;;;;;;21.80;63.34;101443.16;7363481;19;20022;-63
2022/08/12 05:07:50;;;;;;;3.78;1.50;;;;;;;21.80;63.74;101440.50;7381607;19;20007;-63
2022/08/12 05:10:21;;;;;;;4.32;1.40;;;;;;;21.77;63.94;101431.03;7381168;19;20032;-67
2022/08/12 05:13:04;;;;;;;6.55;1.75;;;;;;;21.81;63.59;101446.66;7380996;19;20014;-65
2022/08/12 05:15:31;;;;;;;8.23;1.30;;;;;;;21.81;63.75;101442.13;7377698;19;20313;-63
2022/08/12 05:17:58;;;;;;;4.15;1.60;;;;;;;21.79;64.14;101440.72;7379200;19;20090;-62
2022/08/12 05:20:27;;;;;;;5.90;1.73;;;;;;;21.79;64.55;101438.03;7377997;19;20022;-64
2022/08/12 05:23:08;;;;;;;5.78;1.55;;;;;;;21.77;64.36;101438.25;7381635;19;20021;-64
2022/08/12 05:25:41;;;;;;;5.05;2.00;;;;;;;21.73;64.65;101437.03;7379351;19;20302;-63
2022/08/12 05:28:11;;;;;;;3.75;1.63;;;;;;;21.70;64.79;101440.09;7382227;19;20081;-62
2022/08/12 05:30:41;;;;;;;4.72;1.38;;;;;;;21.67;64.72;101437.88;7381891;19;20534;-63
2022/08/12 05:33:10;;;;;;;4.28;1.38;;;;;;;21.65;65.27;101447.97;7379617;19;20014;-63
2022/08/12 05:35:41;;;;;;;5.80;2.03;;;;;;;21.65;65.47;101451.47;7379515;19;20483;-63
2022/08/12 05:40:55;;;;;;;5.28;1.73;;;;;;;21.70;65.42;101451.66;7382150;19;20010;-63
2022/08/12 05:43:23;;;;;;;3.47;2.03;;;;;;;21.73;65.14;101458.47;7383068;19;20014;-63
2022/08/12 05:45:50;;;;;;;4.30;1.95;;;;;;;21.71;65.28;101457.84;7380322;19;20041;-63
2022/08/12 05:48:17;;;;;;;5.10;2.53;;;;;;;21.68;65.89;101456.41;7381888;19;20007;-62
2022/08/12 05:50:44;;;;;;;6.43;1.92;;;;;;;21.66;65.98;101458.47;7378967;19;20122;-62
2022/08/12 05:53:12;;;;;;;5.10;1.90;;;;;;;21.63;65.98;101466.94;7382209;19;20020;-64
2022/08/12 05:55:39;;;;;;;5.63;2.08;;;;;;;21.66;66.55;101461.16;7381017;19;20125;-64
2022/08/12 05:58:06;;;;;;;6.03;2.17;;;;;;;21.71;66.17;101461.34;7383475;19;20017;-63
2022/08/12 06:00:34;;;;;;;3.58;1.50;;;;;;;21.75;65.84;101462.56;7381542;19;20014;-64
2022/08/12 06:03:03;;;;;;;4.10;1.83;;;;;;;21.77;65.79;101460.50;7379681;19;20015;-63
2022/08/12 06:05:36;;;;;;;6.35;1.52;;;;;;;21.82;65.88;101457.19;7379352;19;20530;-63
2022/08/12 06:08:22;;;;;;;3.40;1.77;;;;;;;21.85;66.08;101461.28;7383253;19;20017;-62
2022/08/12 06:10:49;;;;;;;7.53;1.85;;;;;;;21.86;66.11;101463.78;7382083;19;20465;-64
2022/08/12 06:13:17;;;;;;;7.03;1.63;;;;;;;21.90;66.35;101461.47;7382025;19;20048;-62
2022/08/12 06:16:06;;;;;;;4.05;1.75;;;;;;;21.93;66.15;101458.41;7380597;19;20375;-63
2022/08/12 06:18:33;;;;;;;5.82;2.05;;;;;;;21.97;65.98;101462.31;7388345;19;20046;-63
2022/08/12 06:21:00;;;;;;;4.05;2.15;;;;;;;21.99;66.07;101461.06;7387068;19;20049;-64
2022/08/12 06:23:28;;;;;;;10.70;1.83;;;;;;;22.04;66.00;101465.81;7388933;19;20424;-64
2022/08/12 06:25:57;;;;;;;5.95;2.22;;;;;;;22.07;66.19;101460.84;7388037;19;20542;-64
2022/08/12 06:28:25;;;;;;;7.50;1.83;;;;;;;22.10;66.39;101460.41;7387766;19;20845;-63
2022/08/12 06:30:52;;;;;;;4.15;1.83;;;;;;;22.15;66.46;101457.06;7387694;19;20109;-64
2022/08/12 06:33:43;;;;;;;4.95;2.30;;;;;;;22.22;66.88;101451.69;7387292;19;20018;-63
2022/08/12 06:36:23;;;;;;;7.18;2.25;;;;;;;22.24;66.13;101455.00;7388086;19;20018;-64
2022/08/12 06:38:58;;;;;;;7.15;1.90;;;;;;;22.26;66.56;101458.28;7386978;19;20105;-63
2022/08/12 06:44:31;;;;;;;7.10;2.10;;;;;;;22.28;66.51;101454.34;7387514;19;20021;-63
2022/08/12 06:46:58;;;;;;;6.70;2.03;;;;;;;22.29;66.67;101461.38;7386505;19;20422;-67
2022/08/12 06:49:27;;;;;;;9.13;3.03;;;;;;;22.31;66.53;101450.41;7384865;19;20065;-66
2022/08/12 06:51:54;;;;;;;4.53;2.00;;;;;;;22.34;67.76;101452.69;7388029;19;20050;-64
2022/08/12 06:54:24;;;;;;;8.70;2.38;;;;;;;22.38;67.51;101446.66;7383083;19;20061;-63
2022/08/12 06:56:56;;;;;;;6.25;2.22;;;;;;;22.43;66.58;101451.38;7388340;19;20481;-62
2022/08/12 06:59:43;;;;;;;8.43;2.30;;;;;;;22.48;66.31;101448.88;7386838;19;20030;-67
2022/08/12 07:02:11;;;;;;;6.05;2.20;;;;;;;22.52;66.76;101444.72;7384534;19;20078;-67
2022/08/12 07:04:38;;;;;;;7.72;2.28;;;;;;;22.57;66.78;101448.41;7381666;19;20015;-67
2022/08/12 07:07:07;;;;;;;4.88;2.28;;;;;;;22.61;66.42;101446.09;7386713;19;20018;-67
2022/08/12 07:09:35;;;;;;;6.80;2.13;;;;;;;22.66;66.40;101448.94;7385858;19;20069;-67
2022/08/12 07:12:23;;;;;;;7.35;2.22;;;;;;;22.73;66.37;101447.09;7387222;19;20038;-67
2022/08/12 07:14:53;;;;;;;6.18;2.40;;;;;;;22.80;66.29;101441.69;7384158;19;20010;-65
2022/08/12 07:17:20;;;;;;;6.90;2.85;;;;;;;22.86;66.76;101440.78;7386242;19;20010;-64
2022/08/12 07:19:48;;;;;;;6.13;2.10;;;;;;;22.89;66.37;101443.03;7383027;19;20014;-64
2022/08/12 07:22:15;;;;;;;4.78;2.20;;;;;;;22.91;67.13;101449.00;7387564;19;20021;-63
2022/08/12 07:25:29;;;;;;;11.73;2.47;;;;;;;22.93;66.77;101444.25;7386062;19;20513;-63
2022/08/12 07:27:29;;;;;;;8.38;2.53;;;;;;;22.97;66.95;101445.44;7385849;19;20062;-63
2022/08/12 07:29:56;;;;;;;9.63;2.90;;;;;;;23.02;66.79;101445.59;7385498;19;20013;-62
2022/08/12 07:32:30;;;;;;;10.70;2.88;;;;;;;23.07;66.83;101443.09;7386787;19;20423;-63
2022/08/12 07:34:57;;;;;;;8.73;2.45;;;;;;;23.12;66.51;101442.44;7377949;19;20759;-63
2022/08/12 07:37:24;;;;;;;8.55;2.25;;;;;;;23.15;66.15;101440.16;7385203;19;20303;-64
2022/08/12 07:39:51;;;;;;;14.10;3.30;;;;;;;23.20;66.00;101442.16;7384072;19;20486;-63
2022/08/12 07:42:27;;;;;;;7.10;1.92;;;;;;;23.24;66.09;101437.97;7386867;19;20010;-63
2022/08/12 07:44:55;;;;;;;6.28;2.47;;;;;;;23.29;66.60;101443.50;7386274;19;20022;-65
2022/08/12 07:47:23;;;;;;;5.13;2.13;;;;;;;23.31;65.94;101449.50;7386444;19;20021;-65
2022/08/12 07:49:50;;;;;;;12.70;2.70;;;;;;;23.35;65.60;101439.94;7382035;19;20013;-64
2022/08/12 07:52:37;;;;;;;10.10;2.45;;;;;;;23.44;66.14;101438.63;7387562;19;20022;-63
2022/08/12 07:55:05;;;;;;;4.45;1.80;;;;;;;23.52;65.86;101438.34;7383401;19;20018;-63
2022/08/12 07:57:32;;;;;;;7.90;1.98;;;;;;;23.69;65.26;101441.25;7386744;19;20534;-62
2022/08/12 08:00:02;;;;;;;5.60;1.95;;;;;;;23.86;64.62;101445.00;7386286;19;20037;-62
2022/08/12 08:02:32;;;;;;;6.75;2.20;;;;;;;23.94;65.02;101439.31;7384659;19;20020;-63
2022/08/12 08:04:59;;;;;;;5.95;1.83;;;;;;;23.98;63.97;101445.88;7383628;19;20557;-63
2022/08/12 08:07:28;;;;;;;9.10;1.98;;;;;;;23.99;63.76;101438.63;7387135;19;20015;-63
2022/08/12 08:10:01;;;;;;;7.53;1.73;;;;;;;24.04;63.56;101441.47;7385345;19;20018;-63
2022/08/12 08:15:14;;;;;;;7.18;2.35;;;;;;;24.10;63.69;101438.69;7382339;19;20098;-64
2022/08/12 08:18:12;;;;;;;7.15;2.08;;;;;;;24.15;63.52;101436.16;7385639;19;20010;-63
2022/08/12 08:20:53;;;;;;;7.68;2.22;;;;;;;24.18;63.38;101437.56;7381470;19;20023;-63
2022/08/12 08:23:20;;;;;;;6.10;1.80;;;;;;;24.21;63.48;101443.34;7385834;19;20022;-62
2022/08/12 08:25:48;;;;;;;8.25;2.08;;;;;;;24.26;63.04;101440.78;7385289;19;20011;-63
2022/08/12 08:28:16;;;;;;;6.63;1.85;;;;;;;24.28;62.99;101443.22;7384884;19;20010;-62
2022/08/12 08:30:46;;;;;;;5.63;1.92;;;;;;;24.31;62.11;101445.50;7383694;19;20015;-63
2022/08/12 08:33:16;;;;;;;8.00;2.15;;;;;;;24.34;63.53;101444.19;7385116;19;20022;-62
2022/08/12 08:36:05;;;;;;;9.25;2.00;;;;;;;24.37;62.70;101433.81;7380087;19;20022;-64
2022/08/12 08:38:44;;;;;;;7.35;1.70;;;;;;;24.42;62.70;101438.50;7384146;19;20433;-64
2022/08/12 08:44:30;;;;;;;4.70;1.42;;;;;;;24.53;62.53;101426.97;7384569;19;20260;-63
2022/08/12 08:46:57;;;;;;;11.55;1.95;;;;;;;24.58;62.68;101435.97;7385941;19;20014;-62
2022/08/12 08:49:24;;;;;;;6.90;2.55;;;;;;;24.61;61.60;101432.81;7381715;19;20093;-66
2022/08/12 08:51:51;;;;;;;8.52;2.05;;;;;;;24.68;61.27;101427.34;7385931;19;20082;-64
2022/08/12 08:54:18;;;;;;;6.05;1.40;;;;;;;24.75;60.41;101428.03;7382854;19;20033;-64
2022/08/12 08:56:48;;;;;;;5.07;1.27;;;;;;;24.83;60.79;101433.13;7385713;19;20077;-65
2022/08/12 08:59:18;;;;;;;13.93;1.70;;;;;;;24.91;60.31;101429.28;7384448;19;20010;-65
2022/08/12 09:01:46;;;;;;;6.63;2.08;;;;;;;24.98;59.38;101430.00;7386020;19;20014;-64
2022/08/12 09:04:14;;;;;;;6.10;2.20;;;;;;;25.02;59.36;101440.06;7381140;19;20010;-64
2022/08/12 09:07:01;;;;;;;6.35;1.67;;;;;;;25.10;59.11;101431.63;7384529;19;20023;-63
2022/08/12 09:09:49;;;;;;;6.50;1.90;;;;;;;25.12;58.85;101434.09;7383111;19;20035;-65
2022/08/12 09:15:22;;;;;;;5.85;1.35;;;;;;;25.26;58.04;101426.59;7381937;19;20489;-65
2022/08/12 09:18:04;;;;;;;5.47;1.80;;;;;;;25.33;57.11;101428.13;7385429;19;20029;-64
2022/08/12 09:20:37;;;;;;;6.53;1.40;;;;;;;25.41;57.30;101435.84;7380460;19;20318;-66
2022/08/12 09:23:09;;;;;;;5.72;1.48;;;;;;;25.57;55.90;101420.84;7382183;19;20018;-64
2022/08/12 09:25:59;;;;;;;5.55;1.40;;;;;;;25.71;55.50;101429.50;7381677;19;20018;-67
2022/08/12 09:28:32;;;;;;;7.57;1.30;;;;;;;25.81;55.45;101421.59;7383050;19;20443;-63
2022/08/12 09:30:59;;;;;;;3.15;1.10;;;;;;;25.94;54.41;101421.34;7381061;19;20157;-63
2022/08/12 09:33:34;;;;;;;6.28;1.10;;;;;;;26.06;54.33;101413.22;7380578;19;20406;-63
2022/08/12 09:36:21;;;;;;;4.35;1.10;;;;;;;26.21;54.24;101421.63;7380806;19;20026;-65
2022/08/12 09:39:09;;;;;;;4.22;1.45;;;;;;;26.35;52.79;101412.19;7380922;19;20408;-65
2022/08/12 09:45:21;;;;;;;4.93;1.10;;;;;;;26.64;51.23;101419.16;7383103;19;20048;-65
2022/08/12 09:48:08;;;;;;;4.05;1.08;;;;;;;26.74;51.50;101410.41;7383623;19;20347;-66
2022/08/12 09:50:35;;;;;;;5.45;1.08;;;;;;;26.80;51.36;101423.75;7377691;19;20102;-66
2022/08/12 09:53:09;;;;;;;3.72;1.10;;;;;;;26.89;52.00;101407.16;7387857;19;20808;-67
2022/08/12 09:55:46;;;;;;;3.97;1.20;;;;;;;26.97;51.80;101415.66;7389670;19;20488;-66
2022/08/12 09:58:36;;;;;;;5.45;1.08;;;;;;;27.07;50.38;101406.91;7390325;19;20340;-67
2022/08/12 10:01:23;;;;;;;5.55;0.95;;;;;;;27.12;49.77;101407.00;7388818;19;20479;-67
2022/08/12 10:03:50;;;;;;;6.38;0.90;;;;;;;27.20;49.25;101410.06;7389036;19;20015;-67
2022/08/12 10:06:44;;;;;;;2.67;1.05;;;;;;;27.32;49.45;101411.88;7390696;19;20485;-67
2022/08/12 10:09:21;;;;;;;6.50;1.27;;;;;;;27.42;48.35;101412.81;7387688;19;20701;-68
2022/08/12 10:14:59;;;;;;;4.18;1.05;;;;;;;27.61;47.50;101394.44;7387760;19;20025;-66
2022/08/12 10:17:26;;;;;;;2.60;0.88;;;;;;;27.71;46.80;101401.84;7387911;19;20010;-66
2022/08/12 10:19:53;;;;;;;14.93;1.63;;;;;;;27.82;46.36;101400.91;7385553;19;20364;-68
2022/08/12 10:22:25;;;;;;;6.43;1.02;;;;;;;27.93;46.16;101395.34;7389286;19;20039;-66
2022/08/12 10:31:29;;;;;;;2.80;0.90;;;;;;;28.07;46.29;101383.06;7388756;19;20010;-66
2022/08/12 10:34:18;;;;;;;3.78;1.00;;;;;;;28.12;45.29;101382.31;7382440;19;20011;-68
2022/08/12 10:37:00;;;;;;;5.53;1.10;;;;;;;28.16;45.02;101374.50;7388711;19;20432;-65
2022/08/12 10:39:47;;;;;;;4.30;0.98;;;;;;;28.20;45.48;101376.44;7386023;19;20109;-62
2022/08/12 10:45:26;;;;;;;4.40;1.00;;;;;;;28.32;44.52;101376.28;7386594;19;20011;-66
2022/08/12 10:47:56;;;;;;;4.75;1.00;;;;;;;28.40;43.55;101367.66;7386221;19;20013;-65
2022/08/12 10:50:43;;;;;;;3.25;0.85;;;;;;;28.46;41.05;101367.47;7382522;19;20154;-65
2022/08/12 10:53:33;;;;;;;5.32;1.15;;;;;;;28.56;39.90;101368.63;7386043;19;20026;-65
2022/08/12 10:56:17;;;;;;;5.15;0.95;;;;;;;28.60;39.77;101364.34;7386496;19;20021;-64
2022/08/12 10:58:44;;;;;;;4.03;0.77;;;;;;;28.65;39.15;101354.31;7387091;19;20054;-64
2022/08/12 11:01:15;;;;;;;5.50;1.20;;;;;;;28.71;38.72;101353.28;7388216;19;20582;-66
2022/08/12 11:04:04;;;;;;;2.70;1.00;;;;;;;28.79;38.65;101352.03;7381559;19;20021;-67
2022/08/12 11:06:52;;;;;;;7.03;1.25;;;;;;;28.86;38.63;101358.03;7386042;19;20038;-63
2022/08/12 11:09:40;;;;;;;5.18;1.00;;;;;;;28.90;38.11;101351.81;7386549;19;20014;-64
2022/08/12 11:12:29;;;;;;;5.18;0.93;;;;;;;28.99;38.40;101346.75;7386186;19;20360;-62
2022/08/12 11:15:16;;;;;;;4.55;1.00;;;;;;;29.06;38.04;101343.78;7384989;19;20339;-63
2022/08/12 11:17:48;;;;;;;7.20;1.08;;;;;;;29.10;37.61;101345.72;7386759;19;20287;-62
2022/08/12 11:20:21;;;;;;;8.27;1.67;;;;;;;29.16;37.45;101332.97;7383654;19;20025;-64
2022/08/12 11:23:00;;;;;;;3.78;1.02;;;;;;;29.20;37.40;101334.13;7385835;19;20015;-63
2022/08/12 11:25:30;;;;;;;4.18;1.20;;;;;;;29.23;37.43;101334.41;7385011;19;20019;-63
2022/08/12 11:28:17;;;;;;;5.60;1.30;;;;;;;29.28;36.84;101328.19;7386413;19;20364;-63
2022/08/12 11:31:02;;;;;;;1.92;0.85;;;;;;;29.33;36.54;101329.03;7385157;19;20015;-63
2022/08/12 11:33:29;;;;;;;8.52;1.10;;;;;;;29.37;36.82;101328.50;7386155;19;20018;-63
2022/08/12 11:36:16;;;;;;;5.43;0.80;;;;;;;29.43;35.85;101325.56;7385708;19;20006;-62
2022/08/12 11:38:48;;;;;;;15.25;1.40;;;;;;;29.43;36.00;101327.44;7381920;19;20030;-64
2022/08/12 11:41:20;;;;;;;12.23;1.25;;;;;;;29.46;36.64;101318.78;7386148;19;20385;-63
2022/08/12 11:44:01;;;;;;;2.33;0.70;;;;;;;29.47;35.53;101323.94;7385676;19;20441;-62
2022/08/12 11:46:56;;;;;;;7.95;1.25;;;;;;;29.49;36.56;101327.22;7386751;19;20010;-63
2022/08/12 11:49:25;;;;;;;6.28;1.45;;;;;;;29.56;36.91;101324.25;7381467;19;20435;-64
2022/08/12 11:52:02;;;;;;;5.35;1.20;;;;;;;29.60;36.22;101322.63;7385117;19;20513;-64
2022/08/12 11:54:30;;;;;;;3.08;0.95;;;;;;;29.63;36.71;101330.22;7382855;19;20648;-64
2022/08/12 11:56:58;;;;;;;5.13;1.08;;;;;;;29.67;36.99;101325.88;7383239;19;20422;-66
2022/08/12 11:59:29;;;;;;;3.95;1.00;;;;;;;29.70;36.76;101323.47;7384467;19;20014;-63
2022/08/12 12:02:16;;;;;;;3.35;1.33;;;;;;;29.72;36.60;101317.75;7383213;19;20438;-63
2022/08/12 12:04:47;;;;;;;4.82;1.40;;;;;;;29.73;36.32;101320.22;7381283;19;20035;-63
2022/08/12 12:07:21;;;;;;;4.07;1.10;;;;;;;29.76;35.78;101308.81;7384775;19;20077;-62
2022/08/12 12:10:13;;;;;;;6.43;0.95;;;;;;;29.80;36.05;101311.81;7381298;19;20344;-63
2022/08/12 12:12:41;;;;;;;11.85;1.00;;;;;;;29.83;35.50;101308.56;7383226;19;20136;-63
2022/08/12 12:15:16;;;;;;;17.10;1.88;;;;;;;29.85;35.47;101302.88;7382062;19;20007;-63
2022/08/12 12:18:02;;;;;;;4.68;1.13;;;;;;;29.86;35.63;101299.06;7382839;19;20015;-62
2022/08/12 12:20:30;;;;;;;2.83;0.82;;;;;;;29.87;36.06;101301.50;7380208;19;20021;-63
2022/08/12 12:22:58;;;;;;;1.60;0.98;;;;;;;29.86;35.52;101286.31;7383758;19;20022;-64
2022/08/12 12:25:26;;;;;;;3.42;0.90;;;;;;;29.89;34.55;101293.94;7381996;19;20015;-63
2022/08/12 12:28:13;;;;;;;4.68;0.93;;;;;;;29.94;34.92;101295.84;7381917;19;20328;-62
2022/08/12 12:31:01;;;;;;;5.80;1.20;;;;;;;29.95;34.37;101289.34;7383839;19;20017;-63
2022/08/12 12:33:29;;;;;;;2.83;0.98;;;;;;;29.94;34.34;101285.00;7383469;19;20074;-63
2022/08/12 12:36:16;;;;;;;3.63;0.88;;;;;;;29.95;34.69;101290.16;7379463;19;20542;-64
2022/08/12 12:38:55;;;;;;;5.53;0.90;;;;;;;29.98;34.34;101284.19;7381762;19;20409;-64
2022/08/12 12:41:22;;;;;;;3.00;0.88;;;;;;;30.00;34.21;101289.34;7383565;19;20019;-63
2022/08/12 12:44:09;;;;;;;4.85;0.90;;;;;;;30.04;33.72;101282.28;7381517;19;20379;-63
2022/08/12 12:46:39;;;;;;;2.50;0.75;;;;;;;30.07;33.63;101282.53;7381759;19;20014;-64
2022/08/12 12:49:10;;;;;;;7.60;1.40;;;;;;;30.06;33.61;101277.41;7378096;19;20070;-62
2022/08/12 12:51:41;;;;;;;3.83;1.20;;;;;;;30.08;33.85;101284.19;7384363;19;20027;-63
2022/08/12 12:54:27;;;;;;;4.47;1.17;;;;;;;30.10;33.61;101278.50;7380925;19;20430;-62
2022/08/12 12:56:54;;;;;;;7.97;1.55;;;;;;;30.10;33.51;101282.03;7382001;19;20383;-62
2022/08/12 12:59:22;;;;;;;6.38;1.00;;;;;;;30.11;33.33;101270.06;7381933;19;20015;-64
2022/08/12 13:02:12;;;;;;;6.95;0.90;;;;;;;30.12;32.70;101260.03;7381939;19;20017;-63
2022/08/12 13:04:58;;;;;;;7.00;1.75;;;;;;;30.17;33.54;101260.03;7380995;19;20022;-63
2022/08/12 13:07:25;;;;;;;3.40;1.05;;;;;;;30.18;33.01;101257.03;7382921;19;20025;-63
2022/08/12 13:10:12;;;;;;;5.60;1.27;;;;;;;30.19;33.02;101255.13;7382976;19;20024;-64
2022/08/12 13:12:41;;;;;;;8.60;2.20;;;;;;;30.18;32.38;101257.03;7384078;19;20037;-63
2022/08/12 13:15:14;;;;;;;6.05;1.65;;;;;;;30.21;32.46;101252.97;7382841;19;20018;-63
2022/08/12 13:18:03;;;;;;;;;;;;;;;30.23;32.69;101261.63;7385816;19;20415;-62
2022/08/12 13:20:30;;;;;;;2.40;0.80;;;;;;;30.25;32.54;101264.91;7379720;19;19922;-65
2022/08/12 13:23:09;;;;;;;3.00;0.80;;;;;;;30.29;32.53;101268.69;7381030;19;20006;-62
2022/08/12 13:26:00;;;;;;;2.85;1.17;;;;;;;30.33;32.58;101263.53;7381413;19;20014;-63
2022/08/12 13:28:29;;;;;;;7.30;1.00;;;;;;;30.33;32.45;101256.19;7388434;19;20013;-63
2022/08/12 13:30:58;;;;;;;4.15;0.80;;;;;;;30.32;31.91;101257.28;7389707;19;20015;-64
2022/08/12 13:33:26;;;;;;;2.55;0.85;;;;;;;30.31;32.60;101255.66;7387960;19;20014;-67
2022/08/12 13:35:59;;;;;;;3.03;0.95;;;;;;;30.34;32.60;101246.94;7381922;19;20177;-67
2022/08/12 13:38:41;;;;;;;4.07;1.40;;;;;;;30.35;31.82;101247.78;7385172;19;20028;-67
2022/08/12 13:41:17;;;;;;;2.28;0.80;;;;;;;30.33;31.89;101242.59;7388400;19;20143;-68
2022/08/12 13:43:45;;;;;;;6.15;0.70;;;;;;;30.36;32.34;101250.22;7388277;19;20370;-65
2022/08/12 13:46:13;;;;;;;4.90;0.80;;;;;;;30.36;31.88;101247.50;7386906;19;20042;-67
2022/08/12 13:48:41;;;;;;;2.20;0.70;;;;;;;30.40;32.21;101242.31;7385920;19;20011;-68
2022/08/12 13:51:11;;;;;;;3.47;0.80;;;;;;;30.43;31.93;101239.06;7389371;19;20436;-67